Terminal Aerodrome Forecast
Issued by NWS Spokane, WA

Home | Current Version | Previous Version | Text Only | Print | Product List | Glossary On
Versions: 1 2 3 4 5 6 7 8 9 10 11 12 13
000
FTUS46 KOTX 241720
TAFLWS
TAF
KLWS 241720Z 2418/2518 VRB04KT P6SM VCSH OVC070
     FM241900 23011KT P6SM -SHRA VCTS SCT050CB BKN080
     FM250100 15004KT P6SM BKN080
     FM250800 VRB03KT P6SM BKN080 OVC120
     FM251400 29005KT P6SM VCSH SCT040 OVC070=

USA.gov is the U.S. government's official web portal to all federal, state and local government web resources and services.